createdAt,value
2018-12-21T00:00:05.005Z,39.83
2018-12-21T00:02:34.677Z,37.70
2018-12-21T00:05:04.292Z,38.87
2018-12-21T00:07:33.819Z,39.53
2018-12-21T00:10:03.488Z,39.60
2018-12-21T00:12:33.032Z,37.00
2018-12-21T00:15:02.533Z,39.03
2018-12-21T00:17:34.745Z,39.53
2018-12-21T00:20:03.984Z,39.87
2018-12-21T00:22:33.922Z,40.27
2018-12-21T00:25:03.573Z,38.83
2018-12-21T00:27:33.162Z,42.07
2018-12-21T00:30:03.385Z,42.27
2018-12-21T00:32:38.001Z,38.63
2018-12-21T00:35:12.826Z,39.43
2018-12-21T00:37:47.385Z,39.47
2018-12-21T00:40:21.933Z,42.17
2018-12-21T00:43:00.280Z,39.63
2018-12-21T00:45:33.977Z,40.10
2018-12-21T00:48:03.660Z,39.70
2018-12-21T00:50:33.169Z,40.27
2018-12-21T00:53:02.756Z,39.70
2018-12-21T00:55:32.500Z,39.30
2018-12-21T00:58:02.100Z,37.73
2018-12-21T01:00:31.748Z,37.70
2018-12-21T01:03:01.422Z,37.17
2018-12-21T01:05:31.003Z,34.73
2018-12-21T01:08:00.493Z,37.53
2018-12-21T01:10:30.158Z,37.43
2018-12-21T01:12:59.788Z,37.43
2018-12-21T01:15:29.309Z,36.80
2018-12-21T01:17:58.837Z,39.03
2018-12-21T01:20:28.400Z,36.53
2018-12-21T01:22:58.052Z,38.70
2018-12-21T01:25:27.548Z,38.70
2018-12-21T01:27:57.071Z,38.23
2018-12-21T01:30:26.685Z,38.83
2018-12-21T01:32:56.261Z,38.47
2018-12-21T01:35:25.750Z,39.27
2018-12-21T01:37:55.236Z,36.30
2018-12-21T01:40:24.801Z,37.17
2018-12-21T01:42:54.348Z,37.43
2018-12-21T01:45:23.929Z,36.13
2018-12-21T01:47:53.516Z,37.67
2018-12-21T01:50:23.280Z,37.97
2018-12-21T01:52:52.896Z,36.17
2018-12-21T01:55:22.482Z,38.03
2018-12-21T01:57:51.966Z,37.47
2018-12-21T02:00:21.534Z,36.27
2018-12-21T02:02:51.145Z,33.07
2018-12-21T02:05:20.908Z,35.03
2018-12-21T02:07:50.533Z,35.80
2018-12-21T02:10:20.230Z,36.80
2018-12-21T02:12:49.809Z,35.83
2018-12-21T02:15:19.504Z,37.77
2018-12-21T02:17:49.081Z,37.30
2018-12-21T02:20:18.632Z,35.83
2018-12-21T02:22:48.121Z,35.73
2018-12-21T02:25:17.637Z,36.40
2018-12-21T02:27:47.194Z,36.93
2018-12-21T02:30:16.780Z,36.47
2018-12-21T02:32:46.541Z,37.20
2018-12-21T02:35:16.132Z,36.53
2018-12-21T02:37:45.702Z,35.50
2018-12-21T02:40:15.364Z,36.37
2018-12-21T02:42:44.896Z,36.27
2018-12-21T02:45:14.437Z,35.30
2018-12-21T02:47:44.018Z,35.10
2018-12-21T02:50:13.608Z,36.37
2018-12-21T02:52:43.128Z,36.67
2018-12-21T02:55:12.747Z,34.83
2018-12-21T02:57:42.491Z,35.80
2018-12-21T03:00:12.333Z,35.20
2018-12-21T03:02:41.879Z,37.10
2018-12-21T03:05:11.501Z,34.47
2018-12-21T03:07:41.028Z,36.03
2018-12-21T03:10:10.984Z,33.87
2018-12-21T03:12:40.521Z,36.23
2018-12-21T03:15:10.145Z,37.70
2018-12-21T03:17:39.839Z,35.77
2018-12-21T03:20:09.443Z,36.47
2018-12-21T03:22:39.094Z,37.10
2018-12-21T03:25:08.577Z,37.47
2018-12-21T03:27:38.292Z,36.77
2018-12-21T03:30:09.274Z,36.13
2018-12-21T03:32:38.797Z,38.43
2018-12-21T03:35:08.455Z,37.70
2018-12-21T03:37:38.141Z,37.60
2018-12-21T03:40:07.958Z,36.90
2018-12-21T03:42:37.532Z,39.73
2018-12-21T03:45:07.562Z,40.80
2018-12-21T03:47:37.056Z,37.07
2018-12-21T03:50:06.838Z,37.77
2018-12-21T03:52:36.413Z,37.53
2018-12-21T03:55:06.446Z,37.80
2018-12-21T03:57:36.072Z,38.63
2018-12-21T04:00:06.169Z,38.10
2018-12-21T04:02:35.701Z,36.67
2018-12-21T04:05:05.458Z,37.80
2018-12-21T04:07:35.034Z,39.03
2018-12-21T04:10:04.844Z,38.70
2018-12-21T04:12:34.424Z,38.83
2018-12-21T04:15:04.256Z,37.33
2018-12-21T04:17:33.842Z,41.27
2018-12-21T04:20:03.505Z,38.20
2018-12-21T04:22:34.141Z,39.03
2018-12-21T04:25:04.198Z,37.27
2018-12-21T04:27:33.816Z,36.67
2018-12-21T04:30:03.452Z,34.23
2018-12-21T04:32:33.086Z,35.73
2018-12-21T04:35:02.498Z,34.30
2018-12-21T04:37:32.051Z,35.87
2018-12-21T04:40:01.626Z,33.73
2018-12-21T04:42:31.148Z,33.27
2018-12-21T04:45:00.730Z,36.60
2018-12-21T04:47:30.310Z,35.63
2018-12-21T04:49:59.844Z,35.50
2018-12-21T04:52:29.497Z,37.57
2018-12-21T04:54:59.094Z,34.60
2018-12-21T04:57:28.630Z,37.87
2018-12-21T04:59:58.111Z,35.50
2018-12-21T05:02:27.724Z,34.63
2018-12-21T05:04:57.312Z,36.33
2018-12-21T05:07:26.941Z,36.20
2018-12-21T05:09:56.568Z,37.63
2018-12-21T05:12:26.094Z,36.27
2018-12-21T05:14:55.687Z,35.27
2018-12-21T05:17:25.245Z,37.10
2018-12-21T05:19:54.833Z,34.70
2018-12-21T05:22:24.356Z,36.93
2018-12-21T05:24:53.873Z,34.17
2018-12-21T05:27:23.491Z,35.37
2018-12-21T05:29:53.076Z,35.53
2018-12-21T05:32:22.573Z,35.13
2018-12-21T05:34:52.193Z,35.60
2018-12-21T05:37:21.824Z,35.47
2018-12-21T05:39:51.324Z,33.93
2018-12-21T05:42:20.937Z,35.40
2018-12-21T05:44:50.755Z,37.83
2018-12-21T05:47:20.346Z,39.23
2018-12-21T05:49:49.982Z,37.10
2018-12-21T05:52:19.845Z,36.23
2018-12-21T05:54:49.404Z,37.90
2018-12-21T05:57:19.102Z,38.00
2018-12-21T05:59:48.567Z,37.57
2018-12-21T06:02:18.320Z,38.13
2018-12-21T06:04:47.848Z,39.37
2018-12-21T06:07:17.449Z,39.83
2018-12-21T06:09:47.726Z,40.47
2018-12-21T06:12:17.388Z,39.43
2018-12-21T06:14:47.120Z,39.40
2018-12-21T06:17:16.741Z,38.27
2018-12-21T06:19:46.409Z,38.20
2018-12-21T06:22:15.993Z,37.47
2018-12-21T06:24:45.678Z,39.60
2018-12-21T06:27:15.129Z,38.70
2018-12-21T06:29:44.685Z,39.03
2018-12-21T06:32:14.117Z,38.60
2018-12-21T06:34:43.678Z,37.50
2018-12-21T06:37:13.267Z,37.77
2018-12-21T06:39:42.985Z,38.83
2018-12-21T06:42:12.513Z,40.10
2018-12-21T06:44:42.263Z,36.20
2018-12-21T06:47:11.773Z,38.27
2018-12-21T06:49:41.326Z,37.33
2018-12-21T06:52:10.952Z,39.40
2018-12-21T06:54:40.807Z,37.17
2018-12-21T06:57:10.326Z,39.20
2018-12-21T06:59:40.005Z,38.67
2018-12-21T07:02:09.661Z,39.40
2018-12-21T07:04:39.302Z,39.00
2018-12-21T07:07:08.957Z,38.77
2018-12-21T07:09:38.622Z,39.87
2018-12-21T07:12:08.197Z,37.33
2018-12-21T07:14:37.714Z,38.77
2018-12-21T07:17:07.281Z,39.00
2018-12-21T07:19:36.842Z,37.27
2018-12-21T07:22:06.417Z,37.57
2018-12-21T07:24:35.829Z,38.93
2018-12-21T07:27:05.429Z,38.83
2018-12-21T07:29:35.004Z,39.63
2018-12-21T07:32:04.656Z,39.40
2018-12-21T07:34:34.302Z,38.90
2018-12-21T07:37:03.960Z,45.57
2018-12-21T07:39:33.548Z,42.27
2018-12-21T07:42:03.111Z,42.60
2018-12-21T07:44:32.679Z,39.90
2018-12-21T07:47:02.463Z,40.03
2018-12-21T07:49:32.010Z,39.87
2018-12-21T07:52:01.817Z,39.67
2018-12-21T07:54:31.365Z,37.47
2018-12-21T07:57:01.004Z,38.20
2018-12-21T07:59:30.508Z,40.90
2018-12-21T08:02:00.161Z,41.63
2018-12-21T08:04:30.352Z,41.27
2018-12-21T08:07:00.005Z,38.80
2018-12-21T08:09:29.564Z,41.97
2018-12-21T08:11:59.105Z,42.03
2018-12-21T08:14:28.716Z,41.70
2018-12-21T08:16:58.361Z,42.23
2018-12-21T08:19:27.909Z,41.27
2018-12-21T08:21:57.601Z,41.83
2018-12-21T08:24:27.228Z,41.53
2018-12-21T08:26:56.777Z,42.90
2018-12-21T08:29:26.263Z,40.77
2018-12-21T08:31:55.943Z,40.83
2018-12-21T08:34:25.403Z,42.53
2018-12-21T08:36:54.981Z,40.93
2018-12-21T08:39:24.637Z,39.97
2018-12-21T08:41:54.164Z,44.43
2018-12-21T08:44:23.677Z,39.37
2018-12-21T08:46:53.316Z,41.27
2018-12-21T08:49:22.985Z,41.73
2018-12-21T08:51:52.481Z,41.03
2018-12-21T08:54:22.085Z,42.50
2018-12-21T08:56:51.960Z,43.83
2018-12-21T08:59:21.569Z,49.87
2018-12-21T09:01:51.024Z,48.67
2018-12-21T09:04:20.571Z,60.47
2018-12-21T09:06:50.417Z,43.70
2018-12-21T09:09:20.041Z,43.90
2018-12-21T09:11:49.582Z,45.17
2018-12-21T09:14:19.173Z,39.97
2018-12-21T09:16:48.724Z,43.60
2018-12-21T09:19:18.269Z,41.90
2018-12-21T09:21:47.816Z,39.20
2018-12-21T09:24:17.544Z,37.83
2018-12-21T09:26:47.064Z,41.00
2018-12-21T09:29:16.697Z,39.30
2018-12-21T09:31:46.241Z,40.40
2018-12-21T09:34:15.845Z,40.27
2018-12-21T09:36:45.564Z,46.17
2018-12-21T09:39:15.164Z,39.13
2018-12-21T09:41:44.849Z,40.33
2018-12-21T09:44:14.496Z,41.23
2018-12-21T09:46:44.066Z,40.60
2018-12-21T09:49:13.704Z,38.33
2018-12-21T09:51:45.329Z,37.87
2018-12-21T09:54:14.949Z,39.27
2018-12-21T09:56:44.512Z,38.93
2018-12-21T09:59:14.032Z,38.93
2018-12-21T10:01:43.690Z,39.77
2018-12-21T10:04:13.521Z,42.13
2018-12-21T10:06:43.451Z,42.90
2018-12-21T10:09:12.908Z,41.10
2018-12-21T10:11:42.495Z,40.57
2018-12-21T10:14:12.014Z,40.53
2018-12-21T10:16:41.611Z,40.27
2018-12-21T10:19:11.109Z,39.40
2018-12-21T10:21:40.620Z,39.97
2018-12-21T10:24:18.287Z,39.03
2018-12-21T10:26:41.672Z,40.70
2018-12-21T10:29:11.261Z,39.60
2018-12-21T10:31:40.865Z,41.07
2018-12-21T10:34:10.314Z,38.13
2018-12-21T10:36:39.852Z,37.00
2018-12-21T10:39:09.569Z,37.53
2018-12-21T10:41:39.117Z,37.57
2018-12-21T10:44:08.620Z,38.20
2018-12-21T10:46:38.257Z,35.57
2018-12-21T10:49:07.910Z,36.73
2018-12-21T10:51:37.532Z,39.33
2018-12-21T10:54:07.174Z,36.80
2018-12-21T10:56:36.750Z,36.87
2018-12-21T10:59:06.385Z,36.20
2018-12-21T11:01:36.031Z,34.63
2018-12-21T11:04:05.710Z,34.50
2018-12-21T11:06:35.334Z,36.23
2018-12-21T11:09:06.675Z,36.40
2018-12-21T11:11:36.197Z,37.43
2018-12-21T11:14:05.840Z,35.80
2018-12-21T11:16:35.444Z,36.73
2018-12-21T11:19:05.139Z,33.63
2018-12-21T11:21:34.691Z,35.10
2018-12-21T11:24:04.233Z,33.70
2018-12-21T11:26:33.858Z,36.00
2018-12-21T11:29:03.494Z,34.10
2018-12-21T11:31:33.104Z,36.27
2018-12-21T11:34:02.641Z,35.87
2018-12-21T11:36:32.274Z,38.03
2018-12-21T11:39:02.015Z,36.53
2018-12-21T11:41:31.595Z,36.90
2018-12-21T11:44:01.186Z,35.87
2018-12-21T11:46:30.893Z,36.57
2018-12-21T11:49:00.406Z,35.10
2018-12-21T11:51:30.001Z,36.60
2018-12-21T11:53:59.847Z,36.80
2018-12-21T11:56:29.452Z,36.33
2018-12-21T11:58:59.183Z,36.83
2018-12-21T12:01:28.817Z,38.30
2018-12-21T12:03:58.410Z,41.10
2018-12-21T12:06:28.045Z,45.73
2018-12-21T12:09:06.009Z,41.33
2018-12-21T12:11:29.516Z,47.07
2018-12-21T12:13:59.128Z,44.33
2018-12-21T12:16:28.810Z,47.80
2018-12-21T12:18:58.449Z,44.50
2018-12-21T12:21:28.077Z,42.30
2018-12-21T12:23:57.668Z,42.73
2018-12-21T12:26:27.293Z,42.23
2018-12-21T12:28:57.036Z,44.60
2018-12-21T12:31:26.705Z,43.03
2018-12-21T12:33:56.196Z,47.80
2018-12-21T12:36:25.809Z,46.17
2018-12-21T12:38:55.533Z,46.50
2018-12-21T12:41:25.180Z,47.60
2018-12-21T12:43:54.669Z,47.80
2018-12-21T12:46:24.189Z,49.77
2018-12-21T12:48:53.874Z,48.83
2018-12-21T12:51:23.642Z,51.23
2018-12-21T12:53:53.257Z,51.77
2018-12-21T12:56:22.846Z,42.40
2018-12-21T12:58:52.449Z,41.53
2018-12-21T13:01:22.120Z,42.33
2018-12-21T13:03:51.745Z,38.80
2018-12-21T13:06:21.321Z,40.57
2018-12-21T13:08:50.848Z,40.03
2018-12-21T13:11:20.393Z,40.43
2018-12-21T13:13:50.099Z,39.97
2018-12-21T13:16:19.693Z,38.63
2018-12-21T13:18:49.277Z,41.13
2018-12-21T13:21:18.871Z,41.30
2018-12-21T13:23:48.593Z,38.87
2018-12-21T13:26:18.328Z,40.37
2018-12-21T13:28:47.893Z,41.40
2018-12-21T13:31:17.492Z,42.60
2018-12-21T13:33:47.173Z,38.23
2018-12-21T13:36:16.855Z,40.77
2018-12-21T13:38:46.489Z,42.70
2018-12-21T13:41:16.037Z,43.00
2018-12-21T13:43:45.575Z,46.00
2018-12-21T13:46:15.130Z,40.93
2018-12-21T13:48:45.043Z,41.53
2018-12-21T13:51:14.646Z,41.63
2018-12-21T13:53:44.303Z,46.27
2018-12-21T13:56:13.846Z,43.27
2018-12-21T13:58:43.435Z,41.80
2018-12-21T14:01:13.008Z,41.40
2018-12-21T14:03:42.654Z,40.43
2018-12-21T14:06:12.123Z,40.90
2018-12-21T14:08:41.662Z,42.27
2018-12-21T14:11:11.119Z,40.23
2018-12-21T14:13:40.751Z,41.47
2018-12-21T14:16:10.431Z,42.27
2018-12-21T14:18:40.017Z,41.07
2018-12-21T14:21:09.849Z,41.53
2018-12-21T14:23:39.537Z,42.30
2018-12-21T14:26:09.164Z,40.90
2018-12-21T14:28:38.730Z,41.93
2018-12-21T14:31:08.491Z,40.27
2018-12-21T14:33:39.098Z,41.70
2018-12-21T14:36:08.625Z,41.47
2018-12-21T14:38:38.196Z,40.97
2018-12-21T14:41:07.748Z,41.27
2018-12-21T14:43:37.309Z,43.43
2018-12-21T14:46:06.848Z,53.13
2018-12-21T14:48:36.501Z,41.97
2018-12-21T14:51:06.176Z,43.17
2018-12-21T14:53:35.806Z,44.60
2018-12-21T14:56:05.500Z,41.20
2018-12-21T14:58:35.086Z,40.83
2018-12-21T15:01:04.821Z,43.27
2018-12-21T15:03:34.351Z,44.57
2018-12-21T15:06:04.033Z,42.10
2018-12-21T15:08:33.602Z,42.83
2018-12-21T15:11:03.221Z,43.53
2018-12-21T15:13:32.792Z,42.40
2018-12-21T15:16:02.377Z,44.07
2018-12-21T15:18:31.856Z,41.73
2018-12-21T15:21:01.395Z,42.53
2018-12-21T15:23:31.029Z,43.83
2018-12-21T15:26:00.694Z,44.60
2018-12-21T15:28:30.368Z,43.13
2018-12-21T15:30:59.879Z,43.07
2018-12-21T15:33:29.414Z,44.80
2018-12-21T15:35:58.950Z,43.50
2018-12-21T15:38:28.556Z,43.77
2018-12-21T15:40:58.201Z,46.37
2018-12-21T15:43:27.837Z,45.83
2018-12-21T15:45:57.372Z,45.40
2018-12-21T15:48:26.938Z,46.83
2018-12-21T15:50:56.519Z,45.77
2018-12-21T15:53:26.120Z,43.70
2018-12-21T15:55:55.750Z,46.70
2018-12-21T15:58:25.388Z,46.80
2018-12-21T16:00:54.869Z,45.83
2018-12-21T16:03:24.500Z,44.60
2018-12-21T16:05:54.080Z,44.50
2018-12-21T16:08:23.730Z,43.83
2018-12-21T16:10:53.354Z,42.77
2018-12-21T16:13:22.893Z,45.97
2018-12-21T16:15:52.515Z,44.30
2018-12-21T16:18:22.154Z,45.03
2018-12-21T16:20:51.748Z,44.30
2018-12-21T16:23:21.205Z,44.23
2018-12-21T16:25:50.847Z,46.03
2018-12-21T16:28:20.409Z,45.70
2018-12-21T16:30:49.989Z,45.43
2018-12-21T16:33:19.469Z,46.13
2018-12-21T16:35:49.046Z,43.37
2018-12-21T16:38:18.625Z,45.40
2018-12-21T16:40:48.168Z,45.90
2018-12-21T16:43:17.708Z,43.43
2018-12-21T16:45:47.211Z,47.33
2018-12-21T16:48:16.961Z,46.70
2018-12-21T16:50:46.527Z,47.57
2018-12-21T16:53:16.000Z,49.23
2018-12-21T16:55:45.567Z,46.93
2018-12-21T16:58:15.101Z,49.17
2018-12-21T17:00:44.754Z,52.83
2018-12-21T17:03:15.768Z,62.37
2018-12-21T17:05:45.632Z,64.00
2018-12-21T17:08:15.131Z,48.53
2018-12-21T17:10:45.161Z,47.13
2018-12-21T17:13:14.804Z,53.57
2018-12-21T17:15:44.504Z,45.87
2018-12-21T17:18:14.524Z,48.87
2018-12-21T17:20:44.013Z,47.77
2018-12-21T17:23:13.578Z,45.63
2018-12-21T17:25:43.119Z,44.43
2018-12-21T17:28:12.750Z,46.63
2018-12-21T17:30:42.368Z,48.63
2018-12-21T17:33:11.925Z,49.80
2018-12-21T17:35:41.569Z,49.33
2018-12-21T17:38:11.240Z,48.77
2018-12-21T17:40:40.705Z,48.57
2018-12-21T17:43:10.268Z,47.13
2018-12-21T17:45:39.846Z,49.93
2018-12-21T17:48:09.463Z,47.33
2018-12-21T17:50:39.108Z,49.97
2018-12-21T17:53:08.642Z,49.90
2018-12-21T17:55:38.129Z,49.37
2018-12-21T17:58:07.658Z,50.17
2018-12-21T18:00:37.898Z,49.80
2018-12-21T18:03:09.041Z,51.57
2018-12-21T18:05:38.705Z,50.50
2018-12-21T18:08:08.280Z,49.67
2018-12-21T18:10:37.760Z,49.40
2018-12-21T18:13:07.301Z,50.50
2018-12-21T18:15:36.908Z,50.47
2018-12-21T18:18:06.436Z,46.33
2018-12-21T18:20:35.961Z,47.03
2018-12-21T18:23:07.922Z,48.57
2018-12-21T18:25:37.523Z,48.47
2018-12-21T18:28:11.047Z,48.13
2018-12-21T18:30:45.610Z,49.13
2018-12-21T18:33:16.678Z,50.23
2018-12-21T18:35:46.294Z,54.73
2018-12-21T18:38:18.961Z,54.17
2018-12-21T18:40:48.588Z,52.07
2018-12-21T18:43:18.143Z,52.63
2018-12-21T18:45:47.653Z,52.33
2018-12-21T18:48:17.333Z,51.30
2018-12-21T18:50:46.788Z,53.73
2018-12-21T18:53:16.312Z,53.07
2018-12-21T18:55:47.940Z,50.17
2018-12-21T18:58:17.440Z,52.70
2018-12-21T19:00:47.077Z,50.63
2018-12-21T19:03:16.576Z,51.23
2018-12-21T19:05:46.105Z,50.70
2018-12-21T19:08:15.729Z,50.77
2018-12-21T19:10:45.317Z,50.43
2018-12-21T19:13:14.953Z,51.77
2018-12-21T19:15:44.552Z,50.83
2018-12-21T19:18:14.057Z,54.17
2018-12-21T19:20:43.640Z,51.30
2018-12-21T19:23:13.184Z,50.27
2018-12-21T19:25:42.723Z,50.63
2018-12-21T19:28:12.326Z,52.67
2018-12-21T19:30:41.762Z,52.23
2018-12-21T19:33:11.412Z,54.23
2018-12-21T19:35:41.354Z,52.83
2018-12-21T19:38:10.974Z,51.37
2018-12-21T19:40:40.574Z,52.70
2018-12-21T19:43:10.160Z,53.17
2018-12-21T19:45:39.731Z,50.37
2018-12-21T19:48:09.277Z,53.03
2018-12-21T19:50:38.861Z,52.03
2018-12-21T19:53:08.345Z,51.87
2018-12-21T19:56:00.880Z,52.97
2018-12-21T19:58:30.501Z,51.13
2018-12-21T20:01:00.048Z,52.57
2018-12-21T20:03:29.702Z,55.90
2018-12-21T20:05:59.221Z,56.47
2018-12-21T20:08:29.180Z,53.83
2018-12-21T20:10:58.742Z,57.70
2018-12-21T20:13:28.334Z,55.40
2018-12-21T20:15:57.921Z,55.73
2018-12-21T20:18:27.508Z,54.97
2018-12-21T20:20:57.106Z,53.07
2018-12-21T20:23:26.685Z,54.73
2018-12-21T20:25:56.256Z,54.23
2018-12-21T20:28:25.936Z,55.20
2018-12-21T20:30:55.508Z,59.27
2018-12-21T20:33:25.037Z,58.17
2018-12-21T20:35:54.670Z,54.97
2018-12-21T20:38:24.251Z,54.27
2018-12-21T20:40:53.869Z,54.70
2018-12-21T20:43:23.357Z,54.73
2018-12-21T20:45:52.942Z,55.50
2018-12-21T20:48:22.434Z,54.97
2018-12-21T20:50:52.077Z,51.97
2018-12-21T20:53:21.664Z,54.37
2018-12-21T20:55:51.220Z,53.40
2018-12-21T20:58:27.869Z,54.03
2018-12-21T21:00:57.545Z,53.47
2018-12-21T21:03:27.069Z,54.47
2018-12-21T21:05:56.733Z,54.20
2018-12-21T21:08:26.357Z,50.73
2018-12-21T21:10:56.144Z,50.17
2018-12-21T21:13:25.734Z,50.43
2018-12-21T21:15:55.301Z,50.50
2018-12-21T21:18:24.757Z,52.27
2018-12-21T21:20:54.305Z,51.93
2018-12-21T21:23:23.890Z,50.40
2018-12-21T21:25:53.450Z,50.30
2018-12-21T21:28:23.024Z,53.30
2018-12-21T21:30:52.716Z,53.57
2018-12-21T21:33:22.257Z,54.13
2018-12-21T21:35:51.846Z,51.57
2018-12-21T21:38:21.372Z,53.20
2018-12-21T21:40:51.029Z,52.53
2018-12-21T21:43:20.913Z,50.50
2018-12-21T21:45:50.578Z,50.87
2018-12-21T21:48:20.237Z,51.37
2018-12-21T21:50:49.887Z,51.27
2018-12-21T21:53:19.574Z,49.80
2018-12-21T21:55:49.148Z,51.53
2018-12-21T21:58:18.885Z,46.53
2018-12-21T22:00:48.582Z,49.37
2018-12-21T22:03:18.133Z,48.83
2018-12-21T22:05:47.727Z,49.80
2018-12-21T22:08:17.172Z,50.93
2018-12-21T22:10:46.714Z,50.83
2018-12-21T22:13:16.345Z,52.00
2018-12-21T22:15:45.844Z,52.77
2018-12-21T22:18:15.398Z,51.70
2018-12-21T22:20:44.937Z,50.70
2018-12-21T22:23:14.576Z,50.40
2018-12-21T22:25:44.100Z,49.40
2018-12-21T22:28:13.733Z,50.07
2018-12-21T22:30:43.373Z,51.00
2018-12-21T22:33:12.896Z,50.57
2018-12-21T22:35:42.346Z,51.27
2018-12-21T22:38:11.841Z,53.00
2018-12-21T22:40:41.384Z,52.83
2018-12-21T22:43:10.890Z,50.97
2018-12-21T22:45:40.473Z,53.47
2018-12-21T22:48:10.007Z,51.13
2018-12-21T22:50:39.533Z,50.97
2018-12-21T22:53:08.929Z,50.40
2018-12-21T22:55:38.532Z,52.70
2018-12-21T22:58:08.154Z,51.03
2018-12-21T23:00:39.138Z,49.60
2018-12-21T23:03:08.954Z,49.80
2018-12-21T23:05:38.537Z,51.63
2018-12-21T23:08:08.125Z,51.00
2018-12-21T23:10:37.680Z,51.23
2018-12-21T23:13:07.314Z,50.80
2018-12-21T23:15:36.837Z,49.93
2018-12-21T23:18:06.385Z,50.53
2018-12-21T23:20:36.020Z,52.50
2018-12-21T23:23:05.669Z,50.87
2018-12-21T23:25:35.260Z,50.27
2018-12-21T23:28:05.431Z,51.73
2018-12-21T23:30:35.096Z,51.13
2018-12-21T23:33:06.025Z,50.00
2018-12-21T23:35:35.924Z,51.27
2018-12-21T23:38:05.596Z,51.50
2018-12-21T23:40:35.086Z,52.30
2018-12-21T23:43:04.745Z,51.90
2018-12-21T23:45:34.285Z,53.20
2018-12-21T23:48:03.918Z,50.80
2018-12-21T23:50:33.550Z,54.20
2018-12-21T23:53:03.101Z,53.43
2018-12-21T23:55:32.689Z,52.90
2018-12-21T23:58:02.264Z,53.30
